createdAt,value
2018-12-20T00:02:03.850Z,29.60
2018-12-20T00:04:35.223Z,30.33
2018-12-20T00:07:07.639Z,28.07
2018-12-20T00:09:35.507Z,25.73
2018-12-20T00:12:03.444Z,30.00
2018-12-20T00:14:31.329Z,29.90
2018-12-20T00:17:04.797Z,32.40
2018-12-20T00:19:32.633Z,22.97
2018-12-20T00:22:00.390Z,28.97
2018-12-20T00:24:35.737Z,30.37
2018-12-20T00:27:03.897Z,30.50
2018-12-20T00:29:31.927Z,29.80
2018-12-20T00:34:50.339Z,28.43
2018-12-20T00:37:24.157Z,31.57
2018-12-20T00:39:54.092Z,29.57
2018-12-20T00:42:26.777Z,28.27
2018-12-20T00:44:54.498Z,28.97
2018-12-20T00:47:22.276Z,29.47
2018-12-20T00:49:50.284Z,31.43
2018-12-20T00:52:18.273Z,29.00
2018-12-20T00:54:46.137Z,26.87
2018-12-20T00:57:13.981Z,20.43
2018-12-20T00:59:42.099Z,25.13
2018-12-20T01:02:09.995Z,29.80
2018-12-20T01:04:37.999Z,28.47
2018-12-20T01:07:05.865Z,25.77
2018-12-20T01:09:33.560Z,27.93
2018-12-20T01:12:01.416Z,28.23
2018-12-20T01:14:29.175Z,29.10
2018-12-20T01:16:56.837Z,29.77
2018-12-20T01:19:24.779Z,29.43
2018-12-20T01:21:52.659Z,31.83
2018-12-20T01:24:20.480Z,29.47
2018-12-20T01:26:48.251Z,30.40
2018-12-20T01:29:16.729Z,32.10
2018-12-20T01:31:49.199Z,29.80
2018-12-20T01:34:18.068Z,24.43
2018-12-20T01:36:46.007Z,29.77
2018-12-20T01:39:13.965Z,30.63
2018-12-20T01:41:41.859Z,27.57
2018-12-20T01:44:09.820Z,27.93
2018-12-20T01:46:37.699Z,27.00
2018-12-20T01:49:05.503Z,28.20
2018-12-20T01:51:33.394Z,25.87
2018-12-20T01:54:01.133Z,28.40
2018-12-20T01:56:28.818Z,28.27
2018-12-20T01:58:56.562Z,28.07
2018-12-20T02:01:24.293Z,24.57
2018-12-20T02:03:52.081Z,29.10
2018-12-20T02:06:19.842Z,26.40
2018-12-20T02:08:47.621Z,24.93
2018-12-20T02:11:15.416Z,24.93
2018-12-20T02:13:43.162Z,25.93
2018-12-20T02:16:11.069Z,25.57
2018-12-20T02:18:38.874Z,24.43
2018-12-20T02:21:06.827Z,24.73
2018-12-20T02:23:34.861Z,25.53
2018-12-20T02:26:02.802Z,26.27
2018-12-20T02:28:30.648Z,22.10
2018-12-20T02:30:58.451Z,25.20
2018-12-20T02:33:26.325Z,27.97
2018-12-20T02:35:54.115Z,23.67
2018-12-20T02:38:22.003Z,26.63
2018-12-20T02:40:49.811Z,20.80
2018-12-20T02:43:17.561Z,25.97
2018-12-20T02:45:45.331Z,26.87
2018-12-20T02:48:13.180Z,26.83
2018-12-20T02:50:41.011Z,24.33
2018-12-20T02:53:08.797Z,26.93
2018-12-20T02:55:36.609Z,27.67
2018-12-20T02:58:04.359Z,24.07
2018-12-20T03:00:32.078Z,24.87
2018-12-20T03:02:59.797Z,25.90
2018-12-20T03:05:27.822Z,27.40
2018-12-20T03:07:55.597Z,22.03
2018-12-20T03:10:23.338Z,27.10
2018-12-20T03:12:51.129Z,26.23
2018-12-20T03:15:20.155Z,24.97
2018-12-20T03:17:48.589Z,26.93
2018-12-20T03:20:16.409Z,23.70
2018-12-20T03:22:44.145Z,24.67
2018-12-20T03:25:12.103Z,23.07
2018-12-20T03:27:40.055Z,23.27
2018-12-20T03:30:11.392Z,26.50
2018-12-20T03:32:39.229Z,24.30
2018-12-20T03:35:07.301Z,24.17
2018-12-20T03:37:35.189Z,23.50
2018-12-20T03:40:03.834Z,25.17
2018-12-20T03:42:32.155Z,24.03
2018-12-20T03:45:00.299Z,25.50
2018-12-20T03:47:28.202Z,24.87
2018-12-20T03:49:56.701Z,23.83
2018-12-20T03:52:24.514Z,24.27
2018-12-20T03:54:52.573Z,24.23
2018-12-20T03:57:20.551Z,26.13
2018-12-20T03:59:48.511Z,23.40
2018-12-20T04:02:16.501Z,25.77
2018-12-20T04:04:44.366Z,26.93
2018-12-20T04:07:12.330Z,26.97
2018-12-20T04:09:40.325Z,26.73
2018-12-20T04:12:08.215Z,24.77
2018-12-20T04:14:36.299Z,27.77
2018-12-20T04:17:04.335Z,27.40
2018-12-20T04:19:32.174Z,30.73
2018-12-20T04:22:00.097Z,25.13
2018-12-20T04:24:28.054Z,25.37
2018-12-20T04:26:55.817Z,26.13
2018-12-20T04:29:23.549Z,24.87
2018-12-20T04:31:51.477Z,24.70
2018-12-20T04:34:19.388Z,26.80
2018-12-20T04:36:47.070Z,27.20
2018-12-20T04:39:14.728Z,27.33
2018-12-20T04:41:42.483Z,27.37
2018-12-20T04:44:10.510Z,26.23
2018-12-20T04:46:38.477Z,26.10
2018-12-20T04:49:06.351Z,26.83
2018-12-20T04:51:34.166Z,33.43
2018-12-20T04:54:01.960Z,33.00
2018-12-20T04:56:29.859Z,27.80
2018-12-20T04:58:57.770Z,27.07
2018-12-20T05:01:25.586Z,27.03
2018-12-20T05:03:53.374Z,28.70
2018-12-20T05:06:21.321Z,25.90
2018-12-20T05:08:49.043Z,27.70
2018-12-20T05:11:16.814Z,24.93
2018-12-20T05:13:44.584Z,28.43
2018-12-20T05:16:12.278Z,27.87
2018-12-20T05:18:39.970Z,26.07
2018-12-20T05:21:08.146Z,28.37
2018-12-20T05:23:36.072Z,32.07
2018-12-20T05:26:03.871Z,29.53
2018-12-20T05:28:31.656Z,28.27
2018-12-20T05:30:59.448Z,28.33
2018-12-20T05:33:27.347Z,26.73
2018-12-20T05:35:55.162Z,25.13
2018-12-20T05:38:22.887Z,23.47
2018-12-20T05:40:50.777Z,25.23
2018-12-20T05:43:24.036Z,23.23
2018-12-20T05:45:51.809Z,25.03
2018-12-20T05:48:19.599Z,26.07
2018-12-20T05:50:47.585Z,25.00
2018-12-20T05:53:15.469Z,26.97
2018-12-20T05:55:43.328Z,23.03
2018-12-20T05:58:11.103Z,25.20
2018-12-20T06:00:38.945Z,24.40
2018-12-20T06:03:06.635Z,27.10
2018-12-20T06:05:34.882Z,27.13
2018-12-20T06:08:02.578Z,26.10
2018-12-20T06:10:30.299Z,25.77
2018-12-20T06:12:58.242Z,27.27
2018-12-20T06:15:26.575Z,27.23
2018-12-20T06:17:54.605Z,27.23
2018-12-20T06:20:22.523Z,26.30
2018-12-20T06:22:50.218Z,25.33
2018-12-20T06:25:17.949Z,24.47
2018-12-20T06:27:46.772Z,28.37
2018-12-20T06:30:14.490Z,25.53
2018-12-20T06:32:42.194Z,24.60
2018-12-20T06:35:09.983Z,22.93
2018-12-20T06:37:37.733Z,25.47
2018-12-20T06:40:05.666Z,24.97
2018-12-20T06:42:33.416Z,23.77
2018-12-20T06:45:01.126Z,22.97
2018-12-20T06:47:28.858Z,24.30
2018-12-20T06:49:56.579Z,23.97
2018-12-20T06:52:24.338Z,24.97
2018-12-20T06:54:52.040Z,26.83
2018-12-20T06:57:19.778Z,25.83
2018-12-20T06:59:47.482Z,26.47
2018-12-20T07:02:15.255Z,23.27
2018-12-20T07:04:42.977Z,22.60
2018-12-20T07:07:10.718Z,27.03
2018-12-20T07:09:38.426Z,24.63
2018-12-20T07:12:06.164Z,27.37
2018-12-20T07:14:33.845Z,25.87
2018-12-20T07:17:01.575Z,26.27
2018-12-20T07:19:29.348Z,26.27
2018-12-20T07:21:57.042Z,26.27
2018-12-20T07:24:24.844Z,33.53
2018-12-20T07:26:52.593Z,32.83
2018-12-20T07:29:20.307Z,35.80
2018-12-20T07:31:47.982Z,37.43
2018-12-20T07:34:16.272Z,32.13
2018-12-20T07:36:44.062Z,32.20
2018-12-20T07:39:11.782Z,39.07
2018-12-20T07:41:39.562Z,34.70
2018-12-20T07:44:07.285Z,35.13
2018-12-20T07:46:37.926Z,34.77
2018-12-20T07:49:04.669Z,34.40
2018-12-20T07:51:32.378Z,32.97
2018-12-20T07:54:00.266Z,36.33
2018-12-20T07:56:27.981Z,31.40
2018-12-20T07:58:55.688Z,33.50
2018-12-20T08:01:23.406Z,34.40
2018-12-20T08:03:51.168Z,31.70
2018-12-20T08:06:18.840Z,31.83
2018-12-20T08:08:46.555Z,33.37
2018-12-20T08:11:14.486Z,30.47
2018-12-20T08:13:42.208Z,30.73
2018-12-20T08:16:09.906Z,30.83
2018-12-20T08:18:37.760Z,30.83
2018-12-20T08:21:05.532Z,29.47
2018-12-20T08:23:33.256Z,30.23
2018-12-20T08:26:00.918Z,30.53
2018-12-20T08:28:28.686Z,29.53
2018-12-20T08:30:57.150Z,31.73
2018-12-20T08:33:24.934Z,30.77
2018-12-20T08:35:52.686Z,29.27
2018-12-20T08:38:20.446Z,31.07
2018-12-20T08:40:48.140Z,29.33
2018-12-20T08:43:15.987Z,31.87
2018-12-20T08:45:43.680Z,29.47
2018-12-20T08:48:11.360Z,30.03
2018-12-20T08:50:39.228Z,31.00
2018-12-20T08:53:06.943Z,32.43
2018-12-20T08:55:34.648Z,31.03
2018-12-20T08:58:02.402Z,22.80
2018-12-20T09:00:30.204Z,28.73
2018-12-20T09:02:57.929Z,28.67
2018-12-20T09:05:25.756Z,30.70
2018-12-20T09:07:53.527Z,29.80
2018-12-20T09:10:21.579Z,29.73
2018-12-20T09:12:49.284Z,29.87
2018-12-20T09:15:17.012Z,32.80
2018-12-20T09:17:44.768Z,34.90
2018-12-20T09:20:13.301Z,34.73
2018-12-20T09:22:54.107Z,35.87
2018-12-20T09:25:22.790Z,34.33
2018-12-20T09:27:50.504Z,31.83
2018-12-20T09:30:18.216Z,32.87
2018-12-20T09:32:45.880Z,33.57
2018-12-20T09:35:13.608Z,28.53
2018-12-20T09:37:41.305Z,28.57
2018-12-20T09:40:09.394Z,32.67
2018-12-20T09:42:37.154Z,31.27
2018-12-20T09:45:12.637Z,32.43
2018-12-20T09:47:46.071Z,33.20
2018-12-20T09:50:14.402Z,32.13
2018-12-20T09:52:42.050Z,32.23
2018-12-20T09:55:09.751Z,32.37
2018-12-20T09:57:37.441Z,27.70
2018-12-20T10:00:06.314Z,28.13
2018-12-20T10:02:34.024Z,29.57
2018-12-20T10:05:01.691Z,28.17
2018-12-20T10:07:29.377Z,27.57
2018-12-20T10:09:57.084Z,29.77
2018-12-20T10:12:24.727Z,29.20
2018-12-20T10:14:52.404Z,27.83
2018-12-20T10:17:20.321Z,29.47
2018-12-20T10:19:48.106Z,32.63
2018-12-20T10:22:15.802Z,32.67
2018-12-20T10:24:43.542Z,32.23
2018-12-20T10:27:11.205Z,34.83
2018-12-20T10:29:38.860Z,30.90
2018-12-20T10:32:06.557Z,31.03
2018-12-20T10:34:35.424Z,33.20
2018-12-20T10:37:03.245Z,35.13
2018-12-20T10:39:30.916Z,35.53
2018-12-20T10:41:58.581Z,31.67
2018-12-20T10:44:26.253Z,32.70
2018-12-20T10:46:56.395Z,35.13
2018-12-20T10:49:24.063Z,29.37
2018-12-20T10:51:51.978Z,35.90
2018-12-20T10:54:19.745Z,33.47
2018-12-20T10:56:47.428Z,35.13
2018-12-20T10:59:15.244Z,32.43
2018-12-20T11:01:46.422Z,33.57
2018-12-20T11:04:19.809Z,33.40
2018-12-20T11:06:53.152Z,32.30
2018-12-20T11:09:26.574Z,32.90
2018-12-20T11:11:59.946Z,32.53
2018-12-20T11:14:27.654Z,32.23
2018-12-20T11:16:55.356Z,31.03
2018-12-20T11:19:23.610Z,33.17
2018-12-20T11:21:51.385Z,32.93
2018-12-20T11:24:19.088Z,30.77
2018-12-20T11:26:46.804Z,33.40
2018-12-20T11:29:14.530Z,31.60
2018-12-20T11:31:42.204Z,34.07
2018-12-20T11:34:09.930Z,32.50
2018-12-20T11:36:40.963Z,31.47
2018-12-20T11:39:08.808Z,29.77
2018-12-20T11:41:38.328Z,29.60
2018-12-20T11:44:06.064Z,31.63
2018-12-20T11:46:33.890Z,37.20
2018-12-20T11:49:01.671Z,36.27
2018-12-20T11:51:29.426Z,31.90
2018-12-20T11:54:03.965Z,33.43
2018-12-20T11:56:31.608Z,40.00
2018-12-20T11:58:59.322Z,35.67
2018-12-20T12:01:27.039Z,33.63
2018-12-20T12:03:57.485Z,33.87
2018-12-20T12:06:24.392Z,34.93
2018-12-20T12:08:52.100Z,37.17
2018-12-20T12:11:19.807Z,32.40
2018-12-20T12:13:47.534Z,32.30
2018-12-20T12:16:15.232Z,32.27
2018-12-20T12:18:49.702Z,32.83
2018-12-20T12:21:17.496Z,32.77
2018-12-20T12:23:45.214Z,32.17
2018-12-20T12:26:12.894Z,31.57
2018-12-20T12:28:40.607Z,33.40
2018-12-20T12:31:08.441Z,32.77
2018-12-20T12:33:36.148Z,34.63
2018-12-20T12:36:04.061Z,32.47
2018-12-20T12:38:31.738Z,31.93
2018-12-20T12:40:59.588Z,32.40
2018-12-20T12:43:27.374Z,34.50
2018-12-20T12:45:55.067Z,37.67
2018-12-20T12:48:22.770Z,37.90
2018-12-20T12:50:50.483Z,36.23
2018-12-20T12:53:18.198Z,38.23
2018-12-20T12:55:46.207Z,35.37
2018-12-20T12:58:13.948Z,34.50
2018-12-20T13:00:41.774Z,36.27
2018-12-20T13:03:09.440Z,37.77
2018-12-20T13:05:37.184Z,37.10
2018-12-20T13:08:04.860Z,36.10
2018-12-20T13:10:32.567Z,37.40
2018-12-20T13:13:00.332Z,37.43
2018-12-20T13:15:28.005Z,39.70
2018-12-20T13:17:55.678Z,41.30
2018-12-20T13:20:23.432Z,42.00
2018-12-20T13:22:51.160Z,40.57
2018-12-20T13:25:18.902Z,38.70
2018-12-20T13:27:46.724Z,40.87
2018-12-20T13:30:14.400Z,36.43
2018-12-20T13:32:42.427Z,37.17
2018-12-20T13:35:10.311Z,37.17
2018-12-20T13:37:37.996Z,37.40
2018-12-20T13:40:06.204Z,39.80
2018-12-20T13:42:34.070Z,43.30
2018-12-20T13:45:01.799Z,41.27
2018-12-20T13:47:29.505Z,43.97
2018-12-20T13:49:57.232Z,40.00
2018-12-20T13:52:25.038Z,41.57
2018-12-20T13:54:52.738Z,43.27
2018-12-20T13:57:20.464Z,40.40
2018-12-20T13:59:48.134Z,42.00
2018-12-20T14:02:15.860Z,42.63
2018-12-20T14:04:43.614Z,47.23
2018-12-20T14:07:11.304Z,41.63
2018-12-20T14:09:38.968Z,44.07
2018-12-20T14:12:06.816Z,44.27
2018-12-20T14:14:34.482Z,40.60
2018-12-20T14:17:02.434Z,41.50
2018-12-20T14:19:30.144Z,43.53
2018-12-20T14:21:57.841Z,38.93
2018-12-20T14:24:25.630Z,36.57
2018-12-20T14:26:53.339Z,39.27
2018-12-20T14:29:21.028Z,41.60
2018-12-20T14:31:48.728Z,40.43
2018-12-20T14:34:16.600Z,40.83
2018-12-20T14:36:44.460Z,46.33
2018-12-20T14:39:12.196Z,45.43
2018-12-20T14:41:39.899Z,48.50
2018-12-20T14:44:07.619Z,47.27
2018-12-20T14:46:35.305Z,41.97
2018-12-20T14:49:03.160Z,42.90
2018-12-20T14:51:30.931Z,42.83
2018-12-20T14:53:58.650Z,63.70
2018-12-20T14:56:26.381Z,46.97
2018-12-20T14:58:54.093Z,48.13
2018-12-20T15:01:21.801Z,42.03
2018-12-20T15:03:49.560Z,45.33
2018-12-20T15:06:20.044Z,43.40
2018-12-20T15:08:47.835Z,47.77
2018-12-20T15:11:15.591Z,43.43
2018-12-20T15:13:43.307Z,37.03
2018-12-20T15:16:11.090Z,45.03
2018-12-20T15:18:38.795Z,41.87
2018-12-20T15:21:06.493Z,41.90
2018-12-20T15:23:34.320Z,48.97
2018-12-20T15:26:02.055Z,47.10
2018-12-20T15:28:29.806Z,41.13
2018-12-20T15:30:57.549Z,42.30
2018-12-20T15:33:26.826Z,42.37
2018-12-20T15:35:54.573Z,41.70
2018-12-20T15:38:22.318Z,42.10
2018-12-20T15:40:50.071Z,39.50
2018-12-20T15:43:17.806Z,39.73
2018-12-20T15:45:45.570Z,45.37
2018-12-20T15:48:15.653Z,45.53
2018-12-20T15:50:43.430Z,42.93
2018-12-20T15:53:11.441Z,42.80
2018-12-20T15:55:39.349Z,41.63
2018-12-20T15:58:07.048Z,45.77
2018-12-20T16:00:34.781Z,40.50
2018-12-20T16:03:02.549Z,40.87
2018-12-20T16:05:30.282Z,42.80
2018-12-20T16:08:03.741Z,39.83
2018-12-20T16:10:31.495Z,38.53
2018-12-20T16:12:59.234Z,41.93
2018-12-20T16:15:26.981Z,43.30
2018-12-20T16:17:54.689Z,40.43
2018-12-20T16:20:22.455Z,43.60
2018-12-20T16:22:50.197Z,41.80
2018-12-20T16:25:18.204Z,42.17
2018-12-20T16:27:45.937Z,41.03
2018-12-20T16:30:13.735Z,40.20
2018-12-20T16:32:41.493Z,37.03
2018-12-20T16:35:09.307Z,40.83
2018-12-20T16:37:37.095Z,37.93
2018-12-20T16:40:05.705Z,36.77
2018-12-20T16:42:33.647Z,39.73
2018-12-20T16:45:01.415Z,36.97
2018-12-20T16:47:29.189Z,36.53
2018-12-20T16:49:56.970Z,35.73
2018-12-20T16:52:31.317Z,35.17
2018-12-20T16:54:59.057Z,37.37
2018-12-20T16:57:26.845Z,35.37
2018-12-20T16:59:54.593Z,34.00
2018-12-20T17:02:22.342Z,37.77
2018-12-20T17:04:50.071Z,35.53
2018-12-20T17:07:17.905Z,33.43
2018-12-20T17:09:45.665Z,32.77
2018-12-20T17:12:13.528Z,38.33
2018-12-20T17:14:41.294Z,38.03
2018-12-20T17:17:09.043Z,37.73
2018-12-20T17:19:36.781Z,41.93
2018-12-20T17:22:04.548Z,43.67
2018-12-20T17:24:32.332Z,41.63
2018-12-20T17:27:00.292Z,48.00
2018-12-20T17:29:28.260Z,41.43
2018-12-20T17:31:55.944Z,40.03
2018-12-20T17:34:23.723Z,40.77
2018-12-20T17:39:25.908Z,43.33
2018-12-20T17:41:53.691Z,44.30
2018-12-20T17:44:21.565Z,46.30
2018-12-20T17:46:49.387Z,44.00
2018-12-20T17:49:21.584Z,41.70
2018-12-20T17:51:49.348Z,40.87
2018-12-20T17:54:17.274Z,39.47
2018-12-20T17:56:45.216Z,39.37
2018-12-20T17:59:12.988Z,42.23
2018-12-20T18:01:40.816Z,42.97
2018-12-20T18:04:08.710Z,41.10
2018-12-20T18:06:36.890Z,41.07
2018-12-20T18:09:07.389Z,41.23
2018-12-20T18:11:36.948Z,42.87
2018-12-20T18:14:04.829Z,44.70
2018-12-20T18:16:33.547Z,44.00
2018-12-20T18:19:01.374Z,42.27
2018-12-20T18:21:32.830Z,42.77
2018-12-20T18:24:04.025Z,44.47
2018-12-20T18:26:31.808Z,44.30
2018-12-20T18:28:59.585Z,41.50
2018-12-20T18:31:27.471Z,39.47
2018-12-20T18:33:55.370Z,44.97
2018-12-20T18:36:23.742Z,46.70
2018-12-20T18:38:51.532Z,45.30
2018-12-20T18:41:19.367Z,42.37
2018-12-20T18:43:47.127Z,56.13
2018-12-20T18:46:14.917Z,40.13
2018-12-20T18:48:51.109Z,43.07
2018-12-20T18:51:19.781Z,44.47
2018-12-20T18:53:52.873Z,49.30
2018-12-20T18:56:28.967Z,45.83
2018-12-20T18:59:04.215Z,48.70
2018-12-20T19:01:44.956Z,43.20
2018-12-20T19:04:13.088Z,44.13
2018-12-20T19:06:40.833Z,40.73
2018-12-20T19:09:08.525Z,44.93
2018-12-20T19:11:36.228Z,43.37
2018-12-20T19:14:04.897Z,47.47
2018-12-20T19:16:32.603Z,46.87
2018-12-20T19:19:00.510Z,46.17
2018-12-20T19:21:31.255Z,45.63
2018-12-20T19:24:03.724Z,47.33
2018-12-20T19:26:33.504Z,53.60
2018-12-20T19:29:01.508Z,48.30
2018-12-20T19:31:31.783Z,48.53
2018-12-20T19:33:59.705Z,51.40
2018-12-20T19:36:28.332Z,43.63
2018-12-20T19:38:56.704Z,46.27
2018-12-20T19:41:27.661Z,46.03
2018-12-20T19:44:10.965Z,45.27
2018-12-20T19:46:41.792Z,45.70
2018-12-20T19:49:12.183Z,46.43
2018-12-20T19:51:43.253Z,45.73
2018-12-20T19:54:15.083Z,44.83
2018-12-20T19:56:43.520Z,44.93
2018-12-20T19:59:13.178Z,48.97
2018-12-20T20:01:41.771Z,49.87
2018-12-20T20:04:12.723Z,49.13
2018-12-20T20:06:43.134Z,49.80
2018-12-20T20:09:15.344Z,50.33
2018-12-20T20:11:44.841Z,52.40
2018-12-20T20:14:16.198Z,52.27
2018-12-20T20:16:50.637Z,50.10
2018-12-20T20:19:20.245Z,50.03
2018-12-20T20:21:49.345Z,53.63
2018-12-20T20:24:20.399Z,53.97
2018-12-20T20:26:51.215Z,53.10
2018-12-20T20:29:27.441Z,50.60
2018-12-20T20:31:58.177Z,51.67
2018-12-20T20:34:29.696Z,53.30
2018-12-20T20:37:00.526Z,50.17
2018-12-20T20:39:31.319Z,52.30
2018-12-20T20:42:00.773Z,53.37
2018-12-20T20:44:31.125Z,61.03
2018-12-20T20:46:59.685Z,58.00
2018-12-20T20:49:32.197Z,60.70
2018-12-20T20:52:02.673Z,58.43
2018-12-20T20:54:31.732Z,54.30
2018-12-20T20:57:01.936Z,53.33
2018-12-20T20:59:32.789Z,56.20
2018-12-20T21:02:00.785Z,57.70
2018-12-20T21:04:29.505Z,58.63
2018-12-20T21:07:01.969Z,56.03
2018-12-20T21:09:48.833Z,62.60
2018-12-20T21:12:22.745Z,59.00
2018-12-20T21:14:52.343Z,60.63
2018-12-20T21:17:20.249Z,60.57
2018-12-20T21:19:50.602Z,59.00
2018-12-20T21:22:19.583Z,61.07
2018-12-20T21:24:52.595Z,61.60
2018-12-20T21:27:22.369Z,62.23
2018-12-20T21:29:51.982Z,64.37
2018-12-20T21:32:22.267Z,62.70
2018-12-20T21:34:54.694Z,62.83
2018-12-20T21:37:24.389Z,61.43
2018-12-20T21:40:10.860Z,63.37
2018-12-20T21:42:40.733Z,62.57
2018-12-20T21:45:11.322Z,61.37
2018-12-20T21:47:50.475Z,57.30
2018-12-20T21:50:20.513Z,62.00
2018-12-20T21:55:42.758Z,62.50
2018-12-20T21:58:10.724Z,58.70
2018-12-20T22:00:38.684Z,60.63
2018-12-20T22:03:06.776Z,61.47
2018-12-20T22:05:41.564Z,58.97
2018-12-20T22:08:28.241Z,61.57
2018-12-20T22:11:28.524Z,63.57
2018-12-20T22:14:07.203Z,59.07
2018-12-20T22:16:42.644Z,59.30
2018-12-20T22:19:15.336Z,58.20
2018-12-20T22:21:50.884Z,58.97
2018-12-20T22:24:29.491Z,61.97
2018-12-20T22:27:04.515Z,59.00
2018-12-20T22:29:35.862Z,62.13
2018-12-20T22:32:08.471Z,62.70
2018-12-20T22:34:43.691Z,62.50
2018-12-20T22:37:11.640Z,62.47
2018-12-20T22:39:39.363Z,63.10
2018-12-20T22:42:07.159Z,60.07
2018-12-20T22:44:34.937Z,60.93
2018-12-20T22:47:02.749Z,62.17
2018-12-20T22:49:30.521Z,60.17
2018-12-20T22:51:58.326Z,54.83
2018-12-20T22:54:26.177Z,56.93
2018-12-20T22:56:53.995Z,49.77
2018-12-20T22:59:21.731Z,54.33
2018-12-20T23:01:49.443Z,55.67
2018-12-20T23:04:17.303Z,53.37
2018-12-20T23:06:46.026Z,53.30
2018-12-20T23:09:13.793Z,52.67
2018-12-20T23:11:41.568Z,52.57
2018-12-20T23:14:09.324Z,53.27
2018-12-20T23:16:37.103Z,54.03
2018-12-20T23:19:04.871Z,53.87
2018-12-20T23:21:32.563Z,52.03
2018-12-20T23:24:00.255Z,52.20
2018-12-20T23:26:27.984Z,53.57
2018-12-20T23:28:55.708Z,55.67
2018-12-20T23:31:23.413Z,55.00
2018-12-20T23:33:51.127Z,54.43
2018-12-20T23:36:18.914Z,53.10
2018-12-20T23:38:46.760Z,49.80
2018-12-20T23:41:14.464Z,53.67
2018-12-20T23:43:42.160Z,50.33
2018-12-20T23:46:09.972Z,55.23
2018-12-20T23:48:37.758Z,52.57
